Time;durP1;ratioP1;P1;durP2;ratioP2;P2;SDS_P1;SDS_P2;PMS_P1;PMS_P2;Temp;Humidity;BMP_temperature;BMP_pressure;BME280_temperature;BME280_humidity;BME280_pressure;Samples;Min_cycle;Max_cycle;Signal;HPM_P1;HPM_P2
2022/11/12 00:01:21;;;;;;;136.87;14.63;;;;;;;;;;5072169;28;20456;-71
2022/11/12 00:03:49;;;;;;;167.03;16.87;;;;;;;;;;5071408;28;20458;-71
2022/11/12 00:06:16;;;;;;;240.10;20.80;;;;;;;;;;5071986;28;20479;-70
2022/11/12 00:08:43;;;;;;;181.27;18.47;;;;;;;;;;5074729;28;20462;-70
2022/11/12 00:11:12;;;;;;;228.70;20.20;;;;;;;;;;5075831;28;20941;-70
2022/11/12 00:13:39;;;;;;;147.90;16.00;;;;;;;;;;5075015;28;20983;-71
2022/11/12 00:16:06;;;;;;;111.37;15.27;;;;;;;;;;5075658;28;20475;-70
2022/11/12 00:18:33;;;;;;;113.43;17.50;;;;;;;;;;5075552;28;20559;-70
2022/11/12 00:21:00;;;;;;;156.13;17.43;;;;;;;;;;5075455;28;20448;-70
2022/11/12 00:23:28;;;;;;;141.53;15.30;;;;;;;;;;5075112;28;20448;-71
2022/11/12 00:26:01;;;;;;;140.23;16.47;;;;;;;;;;5075228;28;20864;-71
2022/11/12 00:28:29;;;;;;;212.60;18.30;;;;;;;;;;5075191;28;20462;-71
2022/11/12 00:30:56;;;;;;;106.53;13.70;;;;;;;;;;5075153;28;20486;-70
2022/11/12 00:33:23;;;;;;;180.07;16.63;;;;;;;;;;5075065;28;20494;-70
2022/11/12 00:35:50;;;;;;;193.37;17.03;;;;;;;;;;5074796;28;20477;-70
2022/11/12 00:38:18;;;;;;;210.70;17.70;;;;;;;;;;5073185;28;20949;-70
2022/11/12 00:40:45;;;;;;;98.90;12.80;;;;;;;;;;5075099;28;20534;-70
2022/11/12 00:43:12;;;;;;;73.47;11.53;;;;;;;;;;5074963;28;20462;-71
2022/11/12 00:45:40;;;;;;;96.33;14.77;;;;;;;;;;5074665;28;20458;-70
2022/11/12 00:48:07;;;;;;;132.17;15.47;;;;;;;;;;5075310;28;20452;-70
2022/11/12 00:50:35;;;;;;;135.77;15.63;;;;;;;;;;5075228;28;20834;-70
2022/11/12 00:53:02;;;;;;;90.57;11.27;;;;;;;;;;5075053;28;20452;-70
2022/11/12 00:55:29;;;;;;;187.33;16.60;;;;;;;;;;5074344;28;20456;-70
2022/11/12 00:57:58;;;;;;;203.03;16.40;;;;;;;;;;5074975;28;20873;-70
2022/11/12 01:00:26;;;;;;;84.53;10.43;;;;;;;;;;5074759;28;20455;-70
2022/11/12 01:02:54;;;;;;;130.30;15.70;;;;;;;;;;5074691;28;20814;-70
2022/11/12 01:05:21;;;;;;;215.03;16.87;;;;;;;;;;5074381;28;20458;-70
2022/11/12 01:07:48;;;;;;;192.93;14.97;;;;;;;;;;5074666;28;20494;-70
2022/11/12 01:10:16;;;;;;;345.37;24.97;;;;;;;;;;5074746;28;20476;-70
2022/11/12 01:12:43;;;;;;;58.70;11.10;;;;;;;;;;5074450;28;20455;-70
2022/11/12 01:15:10;;;;;;;128.07;13.07;;;;;;;;;;5073878;28;20470;-70
2022/11/12 01:17:37;;;;;;;104.23;11.60;;;;;;;;;;5074375;28;20479;-70
2022/11/12 01:20:07;;;;;;;127.33;13.60;;;;;;;;;;5073286;28;20448;-70
2022/11/12 01:22:34;;;;;;;43.27;11.00;;;;;;;;;;5074558;28;20539;-70
2022/11/12 01:25:01;;;;;;;78.33;11.97;;;;;;;;;;5073877;28;20817;-70
2022/11/12 01:27:28;;;;;;;81.33;11.13;;;;;;;;;;5074099;28;20467;-70
2022/11/12 01:29:55;;;;;;;125.93;13.27;;;;;;;;;;5074338;28;20936;-70
2022/11/12 01:32:22;;;;;;;221.87;23.20;;;;;;;;;;5074059;28;20454;-70
2022/11/12 01:34:52;;;;;;;140.23;16.13;;;;;;;;;;5073463;28;20447;-70
2022/11/12 01:37:20;;;;;;;181.07;14.37;;;;;;;;;;5072330;28;20489;-70
2022/11/12 01:39:47;;;;;;;84.87;10.90;;;;;;;;;;5073706;28;20456;-70
2022/11/12 01:42:14;;;;;;;167.40;14.87;;;;;;;;;;5074079;28;20456;-70
2022/11/12 01:44:43;;;;;;;233.03;21.10;;;;;;;;;;5073493;28;21012;-70
2022/11/12 01:47:13;;;;;;;120.70;11.33;;;;;;;;;;5073684;28;20476;-70
2022/11/12 01:49:42;;;;;;;172.17;15.17;;;;;;;;;;5073807;28;20480;-70
2022/11/12 01:52:13;;;;;;;154.50;13.97;;;;;;;;;;5073722;28;20447;-70
2022/11/12 01:54:41;;;;;;;165.50;17.30;;;;;;;;;;5073409;28;20437;-70
2022/11/12 01:57:10;;;;;;;220.17;15.70;;;;;;;;;;5073907;28;20474;-70
2022/11/12 01:59:39;;;;;;;48.07;8.80;;;;;;;;;;5073849;28;20784;-70
2022/11/12 02:02:06;;;;;;;231.90;16.73;;;;;;;;;;5073345;28;20440;-70
2022/11/12 02:04:34;;;;;;;282.77;21.20;;;;;;;;;;5072740;28;20971;-70
2022/11/12 02:07:01;;;;;;;167.20;15.63;;;;;;;;;;5073617;28;20808;-70
2022/11/12 02:09:29;;;;;;;72.87;9.30;;;;;;;;;;5073225;28;20465;-70
2022/11/12 02:11:59;;;;;;;80.87;10.57;;;;;;;;;;5073192;28;20458;-70
2022/11/12 02:14:25;;;;;;;90.13;10.50;;;;;;;;;;5072551;28;20460;-70
2022/11/12 02:16:52;;;;;;;210.07;17.97;;;;;;;;;;5073025;28;20474;-70
2022/11/12 02:19:19;;;;;;;195.77;18.27;;;;;;;;;;5073232;28;20438;-70
2022/11/12 02:21:48;;;;;;;206.27;17.27;;;;;;;;;;5073331;28;20451;-70
2022/11/12 02:24:35;;;;;;;132.77;14.03;;;;;;;;;;5072605;28;20458;-70
2022/11/12 02:27:04;;;;;;;66.20;10.77;;;;;;;;;;5073057;28;20475;-70
2022/11/12 02:29:31;;;;;;;39.43;8.23;;;;;;;;;;5072982;28;20909;-70
2022/11/12 02:31:58;;;;;;;30.80;7.10;;;;;;;;;;5072518;28;20459;-70
2022/11/12 02:34:25;;;;;;;61.50;11.40;;;;;;;;;;5072486;28;20452;-70
2022/11/12 02:36:53;;;;;;;166.10;13.50;;;;;;;;;;5072801;28;20487;-70
2022/11/12 02:39:21;;;;;;;117.67;13.20;;;;;;;;;;5071770;28;20447;-70
2022/11/12 02:41:48;;;;;;;125.90;12.50;;;;;;;;;;5073116;28;20805;-70
2022/11/12 02:44:15;;;;;;;69.40;11.23;;;;;;;;;;5072231;28;20452;-70
2022/11/12 02:46:42;;;;;;;152.23;13.87;;;;;;;;;;5072769;28;20472;-70
2022/11/12 02:49:09;;;;;;;117.53;12.37;;;;;;;;;;5072998;28;20448;-70
2022/11/12 02:51:36;;;;;;;106.83;11.93;;;;;;;;;;5072542;28;20493;-70
2022/11/12 02:54:05;;;;;;;55.67;9.70;;;;;;;;;;5072051;28;20451;-70
2022/11/12 02:56:34;;;;;;;195.00;19.10;;;;;;;;;;5072766;28;20566;-70
2022/11/12 02:59:01;;;;;;;110.43;13.27;;;;;;;;;;5072990;28;20483;-70
2022/11/12 03:01:28;;;;;;;117.37;14.77;;;;;;;;;;5072842;28;20443;-70
2022/11/12 03:03:55;;;;;;;105.93;13.47;;;;;;;;;;5072157;28;20953;-70
2022/11/12 03:06:22;;;;;;;183.37;16.87;;;;;;;;;;5072318;28;20579;-70
2022/11/12 03:08:49;;;;;;;227.20;18.50;;;;;;;;;;5072625;28;20448;-70
2022/11/12 03:11:18;;;;;;;210.33;20.03;;;;;;;;;;5072441;28;21000;-70
2022/11/12 03:13:45;;;;;;;162.50;15.80;;;;;;;;;;5072074;28;20845;-70
2022/11/12 03:16:12;;;;;;;210.97;15.67;;;;;;;;;;5072441;28;20991;-70
2022/11/12 03:18:40;;;;;;;297.33;21.80;;;;;;;;;;5072587;28;20451;-70
2022/11/12 03:21:07;;;;;;;469.73;32.30;;;;;;;;;;5072735;28;20887;-70
2022/11/12 03:23:34;;;;;;;186.93;16.03;;;;;;;;;;5071878;28;20467;-70
2022/11/12 03:26:03;;;;;;;251.90;22.60;;;;;;;;;;5072341;28;20488;-70
2022/11/12 03:28:31;;;;;;;63.80;10.40;;;;;;;;;;5072247;28;20475;-70
2022/11/12 03:30:59;;;;;;;163.00;15.80;;;;;;;;;;5072254;28;20488;-70
2022/11/12 03:33:27;;;;;;;120.03;14.73;;;;;;;;;;5072136;28;20455;-70
2022/11/12 03:35:54;;;;;;;154.20;16.07;;;;;;;;;;5072238;28;20476;-70
2022/11/12 03:38:21;;;;;;;168.33;17.73;;;;;;;;;;5070844;28;20439;-70
2022/11/12 03:40:49;;;;;;;213.30;20.70;;;;;;;;;;5072236;28;20939;-70
2022/11/12 03:43:16;;;;;;;185.80;16.20;;;;;;;;;;5074235;28;20542;-70
2022/11/12 03:45:45;;;;;;;187.33;17.10;;;;;;;;;;5075779;28;20525;-70
2022/11/12 03:48:12;;;;;;;115.37;12.63;;;;;;;;;;5076316;28;20465;-70
2022/11/12 03:50:39;;;;;;;126.53;11.47;;;;;;;;;;5076157;28;20840;-70
2022/11/12 03:53:06;;;;;;;85.17;12.07;;;;;;;;;;5076173;28;20941;-70
2022/11/12 03:55:34;;;;;;;129.77;12.20;;;;;;;;;;5075865;28;20456;-70
2022/11/12 03:58:01;;;;;;;74.20;9.80;;;;;;;;;;5076164;28;20876;-71
2022/11/12 04:00:29;;;;;;;105.83;10.97;;;;;;;;;;5075931;28;20522;-70
2022/11/12 04:02:58;;;;;;;166.70;14.73;;;;;;;;;;5075614;28;20866;-70
2022/11/12 04:10:59;;;;;;;165.10;13.60;;;;;;;;;;5075680;28;20489;-70
2022/11/12 04:13:26;;;;;;;135.57;11.87;;;;;;;;;;5075483;28;20556;-70
2022/11/12 04:24:05;;;;;;;81.67;9.47;;;;;;;;;;5074854;28;20978;-70
2022/11/12 04:26:32;;;;;;;329.23;24.37;;;;;;;;;;5075458;28;20911;-70
2022/11/12 04:31:43;;;;;;;144.30;11.10;;;;;;;;;;5075283;28;20494;-70
2022/11/12 04:34:30;;;;;;;175.03;13.80;;;;;;;;;;5074865;28;20451;-70
2022/11/12 04:36:58;;;;;;;219.23;17.93;;;;;;;;;;5074570;28;20472;-70
2022/11/12 04:39:25;;;;;;;107.13;11.77;;;;;;;;;;5074721;28;20501;-70
2022/11/12 04:47:21;;;;;;;228.23;16.67;;;;;;;;;;5074970;28;20518;-70
2022/11/12 04:49:50;;;;;;;200.30;17.37;;;;;;;;;;5075213;28;20799;-69
2022/11/12 04:52:17;;;;;;;212.97;16.10;;;;;;;;;;5075166;28;20549;-69
2022/11/12 04:54:44;;;;;;;133.63;12.37;;;;;;;;;;5074121;28;20451;-69
2022/11/12 04:57:11;;;;;;;69.07;9.90;;;;;;;;;;5074898;28;20467;-69
2022/11/12 04:59:39;;;;;;;113.80;11.57;;;;;;;;;;5074920;28;20451;-69
2022/11/12 05:02:06;;;;;;;271.47;19.13;;;;;;;;;;5075087;28;20440;-69
2022/11/12 05:04:33;;;;;;;161.67;14.47;;;;;;;;;;5074269;28;20972;-69
2022/11/12 05:07:02;;;;;;;220.17;14.80;;;;;;;;;;5074615;28;20474;-69
2022/11/12 05:09:30;;;;;;;113.47;13.60;;;;;;;;;;5074754;28;20447;-69
2022/11/12 05:11:57;;;;;;;187.47;17.53;;;;;;;;;;5074598;28;20483;-69
2022/11/12 05:14:24;;;;;;;148.87;14.33;;;;;;;;;;5073892;28;20629;-69
2022/11/12 05:16:52;;;;;;;189.03;16.17;;;;;;;;;;5074616;28;20471;-69
2022/11/12 05:19:19;;;;;;;109.93;12.77;;;;;;;;;;5074396;28;20491;-69
2022/11/12 05:22:05;;;;;;;81.43;11.03;;;;;;;;;;5074208;28;20444;-70
2022/11/12 05:24:33;;;;;;;165.30;14.53;;;;;;;;;;5073643;28;20470;-69
2022/11/12 05:27:00;;;;;;;42.13;7.67;;;;;;;;;;5074237;28;20467;-69
2022/11/12 05:29:28;;;;;;;247.73;18.67;;;;;;;;;;5074402;28;20440;-69
2022/11/12 05:31:55;;;;;;;90.00;11.27;;;;;;;;;;5074021;28;20488;-69
2022/11/12 05:34:22;;;;;;;108.87;12.50;;;;;;;;;;5073527;28;20957;-70
2022/11/12 05:36:50;;;;;;;73.90;13.60;;;;;;;;;;5073741;28;20475;-70
2022/11/12 05:39:17;;;;;;;139.03;13.47;;;;;;;;;;5073363;28;20924;-70
2022/11/12 05:41:45;;;;;;;76.37;10.93;;;;;;;;;;5073978;28;20444;-70
2022/11/12 05:44:13;;;;;;;106.37;11.27;;;;;;;;;;5073553;28;20455;-70
2022/11/12 05:46:40;;;;;;;69.00;9.77;;;;;;;;;;5073754;28;20479;-70
2022/11/12 05:49:07;;;;;;;108.53;10.17;;;;;;;;;;5074151;28;20448;-70
2022/11/12 05:51:34;;;;;;;81.63;10.33;;;;;;;;;;5073903;28;20860;-69
2022/11/12 05:54:01;;;;;;;128.87;9.63;;;;;;;;;;5073148;28;20451;-69
2022/11/12 05:56:29;;;;;;;56.33;9.70;;;;;;;;;;5073606;28;20471;-69
2022/11/12 05:58:57;;;;;;;72.03;9.40;;;;;;;;;;5073969;28;20470;-69
2022/11/12 06:01:25;;;;;;;27.57;7.67;;;;;;;;;;5073558;28;20452;-69
2022/11/12 06:03:52;;;;;;;56.83;15.80;;;;;;;;;;5073121;28;20454;-69
2022/11/12 06:06:19;;;;;;;24.23;8.53;;;;;;;;;;5073031;28;20474;-69
2022/11/12 06:08:46;;;;;;;26.53;9.50;;;;;;;;;;5073446;28;20472;-69
2022/11/12 06:11:13;;;;;;;93.33;12.10;;;;;;;;;;5073634;28;20483;-69
2022/11/12 06:13:41;;;;;;;35.73;9.97;;;;;;;;;;5072598;28;20469;-69
2022/11/12 06:16:10;;;;;;;62.57;8.50;;;;;;;;;;5073249;28;20477;-70
2022/11/12 06:18:37;;;;;;;63.47;14.60;;;;;;;;;;5073438;28;20452;-69
2022/11/12 06:21:21;;;;;;;23.13;8.47;;;;;;;;;;5073502;28;20919;-69
2022/11/12 06:23:49;;;;;;;67.53;9.40;;;;;;;;;;5072506;28;20466;-69
2022/11/12 06:26:16;;;;;;;15.07;7.23;;;;;;;;;;5073006;28;20480;-69
2022/11/12 06:28:43;;;;;;;55.93;11.97;;;;;;;;;;5072860;28;20447;-69
2022/11/12 06:31:12;;;;;;;21.17;9.90;;;;;;;;;;5072886;28;20483;-69
2022/11/12 06:33:39;;;;;;;58.47;9.73;;;;;;;;;;5072484;28;20451;-69
2022/11/12 06:36:07;;;;;;;58.70;8.60;;;;;;;;;;5072782;28;20815;-69
2022/11/12 06:38:35;;;;;;;53.43;13.53;;;;;;;;;;5072104;28;20462;-68
2022/11/12 06:41:02;;;;;;;76.60;9.60;;;;;;;;;;5087807;28;20470;-69
2022/11/12 06:43:30;;;;;;;94.93;11.20;;;;;;;;;;5090912;28;20458;-69
2022/11/12 06:46:00;;;;;;;21.90;7.57;;;;;;;;;;5092201;28;20471;-69
2022/11/12 06:48:29;;;;;;;81.37;11.93;;;;;;;;;;5092791;28;20521;-69
2022/11/12 06:50:56;;;;;;;40.83;8.63;;;;;;;;;;5092937;28;20805;-69
2022/11/12 06:53:23;;;;;;;58.93;7.70;;;;;;;;;;5092623;28;20507;-69
2022/11/12 06:55:50;;;;;;;75.80;7.60;;;;;;;;;;5092334;28;20467;-69
2022/11/12 06:58:18;;;;;;;32.97;7.40;;;;;;;;;;5092660;28;20452;-69
2022/11/12 07:00:45;;;;;;;107.40;10.33;;;;;;;;;;5092510;28;20458;-69
2022/11/12 07:03:15;;;;;;;74.57;9.20;;;;;;;;;;5092693;28;20446;-69
2022/11/12 07:05:44;;;;;;;37.13;7.30;;;;;;;;;;5092086;28;20530;-69
2022/11/12 07:08:11;;;;;;;124.37;10.40;;;;;;;;;;5091696;28;20824;-69
2022/11/12 07:10:38;;;;;;;52.60;8.00;;;;;;;;;;5092366;28;20455;-69
2022/11/12 07:13:05;;;;;;;36.60;8.10;;;;;;;;;;5092532;28;20509;-69
2022/11/12 07:15:32;;;;;;;47.20;9.60;;;;;;;;;;5091502;28;20454;-69
2022/11/12 07:18:00;;;;;;;87.17;10.80;;;;;;;;;;5096239;28;20446;-69
2022/11/12 07:20:27;;;;;;;37.37;8.27;;;;;;;;;;5096733;28;20446;-69
2022/11/12 07:22:55;;;;;;;56.23;10.10;;;;;;;;;;5096868;28;20932;-69
2022/11/12 07:25:22;;;;;;;84.77;12.10;;;;;;;;;;5095861;28;21000;-69
2022/11/12 07:27:49;;;;;;;41.63;7.80;;;;;;;;;;5096208;28;20477;-69
2022/11/12 07:30:17;;;;;;;102.63;11.07;;;;;;;;;;5096295;28;20500;-69
2022/11/12 07:32:44;;;;;;;82.23;11.93;;;;;;;;;;5096065;28;20482;-69
2022/11/12 07:35:11;;;;;;;70.33;11.43;;;;;;;;;;5096137;28;20446;-69
2022/11/12 07:37:38;;;;;;;37.93;10.37;;;;;;;;;;5094661;28;20519;-69
2022/11/12 07:40:07;;;;;;;40.03;9.40;;;;;;;;;;5096649;28;20803;-69
2022/11/12 07:42:35;;;;;;;66.30;11.10;;;;;;;;;;5096127;28;20442;-69
2022/11/12 07:45:02;;;;;;;25.47;9.43;;;;;;;;;;5095916;28;20450;-69
2022/11/12 07:47:29;;;;;;;39.67;9.30;;;;;;;;;;5096432;28;20975;-69
2022/11/12 07:49:56;;;;;;;56.37;10.30;;;;;;;;;;5096331;28;20445;-69
2022/11/12 07:52:24;;;;;;;47.70;10.23;;;;;;;;;;5096108;28;20482;-69
2022/11/12 07:54:51;;;;;;;99.83;12.77;;;;;;;;;;5095800;28;20462;-69
2022/11/12 07:57:19;;;;;;;42.07;10.37;;;;;;;;;;5096386;28;20478;-69
2022/11/12 07:59:46;;;;;;;26.87;10.20;;;;;;;;;;5096206;28;20451;-69
2022/11/12 08:02:14;;;;;;;47.73;9.23;;;;;;;;;;5096434;28;20438;-69
2022/11/12 08:04:41;;;;;;;65.30;9.30;;;;;;;;;;5095630;28;20931;-69
2022/11/12 08:07:08;;;;;;;33.57;8.27;;;;;;;;;;5096222;28;20466;-69
2022/11/12 08:09:35;;;;;;;47.37;8.60;;;;;;;;;;5095751;28;20458;-69
2022/11/12 08:12:02;;;;;;;76.10;12.13;;;;;;;;;;5096211;28;20844;-69
2022/11/12 08:14:31;;;;;;;93.73;12.30;;;;;;;;;;5095491;28;20465;-69
2022/11/12 08:16:58;;;;;;;90.63;10.47;;;;;;;;;;5095930;28;20481;-69
2022/11/12 08:19:25;;;;;;;65.00;10.60;;;;;;;;;;5095765;28;20810;-69
2022/11/12 08:21:52;;;;;;;86.23;11.40;;;;;;;;;;5095731;28;20438;-69
2022/11/12 08:24:19;;;;;;;35.97;9.47;;;;;;;;;;5095868;28;20450;-69
2022/11/12 08:26:47;;;;;;;64.37;12.03;;;;;;;;;;5095602;28;20478;-69
2022/11/12 08:29:14;;;;;;;39.70;13.00;;;;;;;;;;5095213;28;20443;-69
2022/11/12 08:31:42;;;;;;;51.93;13.80;;;;;;;;;;5095394;28;21018;-69
2022/11/12 08:34:12;;;;;;;40.10;12.87;;;;;;;;;;5095098;28;20458;-69
2022/11/12 08:36:40;;;;;;;66.37;15.80;;;;;;;;;;5095392;28;20466;-69
2022/11/12 08:39:08;;;;;;;57.07;14.60;;;;;;;;;;5094109;28;20854;-69
2022/11/12 08:41:35;;;;;;;61.83;15.80;;;;;;;;;;5095358;28;20446;-69
2022/11/12 08:44:02;;;;;;;38.53;13.33;;;;;;;;;;5095181;28;20447;-69
2022/11/12 08:46:29;;;;;;;99.90;14.97;;;;;;;;;;5095101;28;20475;-69
2022/11/12 08:48:58;;;;;;;42.43;13.80;;;;;;;;;;5095381;28;20454;-69
2022/11/12 08:51:25;;;;;;;77.83;14.93;;;;;;;;;;5095441;28;20453;-69
2022/11/12 08:53:52;;;;;;;79.57;19.63;;;;;;;;;;5095075;28;20807;-69
2022/11/12 08:56:20;;;;;;;63.53;16.50;;;;;;;;;;5095216;28;20838;-69
2022/11/12 08:58:47;;;;;;;75.40;16.13;;;;;;;;;;5095199;28;20854;-69
2022/11/12 09:01:14;;;;;;;53.67;17.60;;;;;;;;;;5094660;28;20898;-69
2022/11/12 09:03:42;;;;;;;66.90;14.17;;;;;;;;;;5092097;28;20483;-69
2022/11/12 09:06:10;;;;;;;65.03;14.47;;;;;;;;;;5094634;28;21011;-69
2022/11/12 09:08:38;;;;;;;34.10;13.30;;;;;;;;;;5094566;28;20871;-69
2022/11/12 09:11:06;;;;;;;53.30;15.10;;;;;;;;;;5094427;28;20455;-69
2022/11/12 09:13:33;;;;;;;36.50;12.47;;;;;;;;;;5093418;28;20495;-69
2022/11/12 09:16:02;;;;;;;54.20;13.63;;;;;;;;;;5094653;28;20552;-69
2022/11/12 09:18:29;;;;;;;25.60;11.90;;;;;;;;;;5094144;28;20512;-69
2022/11/12 09:21:00;;;;;;;25.23;12.50;;;;;;;;;;5094610;28;20789;-69
2022/11/12 09:23:29;;;;;;;31.47;13.90;;;;;;;;;;5094505;28;20438;-69
2022/11/12 09:25:57;;;;;;;41.33;15.60;;;;;;;;;;5094300;28;20466;-69
2022/11/12 09:28:24;;;;;;;41.60;14.17;;;;;;;;;;5094277;28;20454;-69
2022/11/12 09:30:52;;;;;;;26.87;12.03;;;;;;;;;;5094373;28;20458;-69
2022/11/12 09:33:20;;;;;;;43.40;13.77;;;;;;;;;;5090795;28;20518;-69
2022/11/12 09:35:48;;;;;;;23.13;12.47;;;;;;;;;;5093526;28;20466;-69
2022/11/12 09:38:15;;;;;;;38.50;10.97;;;;;;;;;;5091494;28;20461;-69
2022/11/12 09:40:49;;;;;;;36.63;10.43;;;;;;;;;;5092694;28;20454;-69
2022/11/12 09:43:22;;;;;;;28.50;12.37;;;;;;;;;;5093935;28;20455;-69
2022/11/12 09:45:50;;;;;;;28.40;10.80;;;;;;;;;;5093358;28;20967;-69
2022/11/12 09:48:19;;;;;;;28.33;11.93;;;;;;;;;;5093744;28;20959;-69
2022/11/12 09:50:50;;;;;;;22.30;10.30;;;;;;;;;;5093677;28;20513;-69
2022/11/12 09:53:19;;;;;;;22.93;12.00;;;;;;;;;;5093672;28;20482;-69
2022/11/12 09:55:49;;;;;;;20.63;10.20;;;;;;;;;;5093030;28;20463;-69
2022/11/12 09:58:17;;;;;;;26.13;9.90;;;;;;;;;;5070590;28;20451;-69
2022/11/12 10:00:49;;;;;;;33.97;10.97;;;;;;;;;;5084049;28;20520;-69
2022/11/12 10:03:23;;;;;;;16.83;10.00;;;;;;;;;;5091839;28;20458;-69
2022/11/12 10:05:56;;;;;;;14.70;7.13;;;;;;;;;;5091408;28;20531;-69
2022/11/12 10:08:30;;;;;;;13.70;8.77;;;;;;;;;;5092393;28;20768;-69
2022/11/12 10:11:03;;;;;;;11.90;8.40;;;;;;;;;;5092275;28;20447;-69
2022/11/12 10:13:39;;;;;;;15.77;8.93;;;;;;;;;;5090415;28;20605;-70
2022/11/12 10:19:05;;;;;;;20.20;9.17;;;;;;;;;;5091937;28;20433;-69
2022/11/12 10:21:36;;;;;;;11.20;9.30;;;;;;;;;;5091660;28;20427;-69
2022/11/12 10:24:04;;;;;;;32.90;12.00;;;;;;;;;;5091142;28;20451;-69
2022/11/12 10:26:33;;;;;;;17.87;11.70;;;;;;;;;;5091509;28;20470;-69
2022/11/12 10:29:03;;;;;;;20.93;11.60;;;;;;;;;;5091281;28;20446;-69
2022/11/12 10:31:30;;;;;;;22.40;13.37;;;;;;;;;;5091790;28;20971;-69
2022/11/12 10:34:10;;;;;;;24.90;13.90;;;;;;;;;;5090921;28;20490;-69
2022/11/12 10:36:39;;;;;;;21.37;13.33;;;;;;;;;;5090747;28;20470;-69
2022/11/12 10:39:06;;;;;;;25.00;14.70;;;;;;;;;;5089430;28;20817;-69
2022/11/12 10:41:34;;;;;;;19.93;12.13;;;;;;;;;;5091419;28;20457;-69
2022/11/12 10:44:03;;;;;;;13.20;11.10;;;;;;;;;;5090586;28;20902;-69
2022/11/12 10:46:30;;;;;;;16.90;12.90;;;;;;;;;;5091228;28;20471;-69
2022/11/12 10:49:00;;;;;;;16.33;10.17;;;;;;;;;;5091384;28;20459;-69
2022/11/12 10:51:29;;;;;;;21.10;14.27;;;;;;;;;;5091052;28;20492;-69
2022/11/12 10:53:56;;;;;;;17.63;12.87;;;;;;;;;;5090498;28;20487;-69
2022/11/12 10:56:25;;;;;;;14.67;11.40;;;;;;;;;;5091135;28;20477;-69
2022/11/12 10:59:07;;;;;;;11.80;9.20;;;;;;;;;;5090931;28;20828;-69
2022/11/12 11:01:35;;;;;;;13.40;9.07;;;;;;;;;;5091343;28;20446;-69
2022/11/12 11:04:03;;;;;;;14.23;9.97;;;;;;;;;;5090523;28;20442;-70
2022/11/12 11:06:30;;;;;;;16.73;13.50;;;;;;;;;;5090705;28;20474;-69
2022/11/12 11:09:09;;;;;;;12.00;9.33;;;;;;;;;;5090998;28;20453;-70
2022/11/12 11:11:36;;;;;;;9.03;8.13;;;;;;;;;;5091194;28;20542;-70
2022/11/12 11:14:24;;;;;;;16.60;9.37;;;;;;;;;;5089924;28;20494;-70
2022/11/12 11:16:53;;;;;;;11.47;8.53;;;;;;;;;;5090692;28;20564;-70
2022/11/12 11:19:21;;;;;;;11.67;9.20;;;;;;;;;;5091153;28;20442;-70
2022/11/12 11:22:00;;;;;;;11.27;8.30;;;;;;;;;;5090642;28;20457;-70
2022/11/12 11:24:36;;;;;;;10.07;8.70;;;;;;;;;;5090871;28;20435;-70
2022/11/12 11:27:05;;;;;;;10.47;7.70;;;;;;;;;;5087910;28;20481;-70
2022/11/12 11:29:39;;;;;;;10.10;8.00;;;;;;;;;;5072507;28;20470;-70
2022/11/12 11:32:11;;;;;;;10.30;8.33;;;;;;;;;;5072232;28;20436;-70
2022/11/12 11:34:44;;;;;;;10.67;8.03;;;;;;;;;;5071667;28;20444;-70
2022/11/12 11:37:20;;;;;;;10.00;8.30;;;;;;;;;;5070432;28;20843;-70
2022/11/12 11:39:51;;;;;;;13.10;8.60;;;;;;;;;;5072496;28;20431;-70
2022/11/12 11:42:26;;;;;;;8.50;7.63;;;;;;;;;;5072357;28;20448;-70
2022/11/12 11:45:00;;;;;;;9.67;8.47;;;;;;;;;;5071876;28;20900;-70
2022/11/12 11:47:33;;;;;;;14.03;10.00;;;;;;;;;;5072314;28;20759;-70
2022/11/12 11:50:10;;;;;;;12.63;9.00;;;;;;;;;;5072099;28;20466;-70
2022/11/12 11:52:46;;;;;;;20.43;15.13;;;;;;;;;;5072107;28;20487;-70
2022/11/12 11:55:33;;;;;;;13.30;9.80;;;;;;;;;;5071466;28;20500;-70
2022/11/12 11:58:06;;;;;;;16.67;11.23;;;;;;;;;;5067081;28;20456;-70
2022/11/12 12:00:37;;;;;;;13.10;11.03;;;;;;;;;;5072000;28;20447;-70
2022/11/12 12:03:19;;;;;;;22.53;15.43;;;;;;;;;;5072671;28;20801;-69
2022/11/12 12:05:51;;;;;;;27.47;17.60;;;;;;;;;;5073040;28;20483;-69
2022/11/12 12:08:23;;;;;;;24.07;17.23;;;;;;;;;;5075934;28;20458;-69
2022/11/12 12:10:53;;;;;;;24.10;14.60;;;;;;;;;;5075575;28;20509;-69
2022/11/12 12:13:25;;;;;;;21.77;14.70;;;;;;;;;;5075709;28;20483;-70
2022/11/12 12:16:01;;;;;;;23.10;14.40;;;;;;;;;;5075525;28;20476;-70
2022/11/12 12:18:34;;;;;;;24.10;14.80;;;;;;;;;;5075757;28;20915;-69
2022/11/12 12:21:04;;;;;;;30.10;18.70;;;;;;;;;;5075397;28;20447;-69
2022/11/12 12:23:34;;;;;;;23.37;15.40;;;;;;;;;;5074909;28;20955;-70
2022/11/12 12:26:03;;;;;;;26.50;16.33;;;;;;;;;;5075358;28;20475;-69
2022/11/12 12:28:35;;;;;;;26.40;15.90;;;;;;;;;;5075251;28;20451;-70
2022/11/12 12:31:06;;;;;;;28.10;17.70;;;;;;;;;;5075435;28;20455;-69
2022/11/12 12:33:36;;;;;;;44.07;24.40;;;;;;;;;;5074706;28;20868;-70
2022/11/12 12:36:07;;;;;;;44.27;23.83;;;;;;;;;;5075718;28;20464;-70
2022/11/12 12:38:38;;;;;;;92.43;49.00;;;;;;;;;;5073179;28;21008;-70
2022/11/12 12:41:10;;;;;;;76.40;40.90;;;;;;;;;;5075638;28;20975;-70
2022/11/12 12:43:39;;;;;;;66.83;36.87;;;;;;;;;;5074493;28;20444;-70
2022/11/12 12:46:06;;;;;;;64.63;34.87;;;;;;;;;;5075097;28;20492;-70
2022/11/12 12:48:35;;;;;;;50.20;28.47;;;;;;;;;;5075027;28;20459;-70
2022/11/12 12:51:02;;;;;;;62.93;32.90;;;;;;;;;;5074974;28;20959;-70
2022/11/12 12:53:34;;;;;;;81.53;39.83;;;;;;;;;;5074174;28;20487;-70
2022/11/12 12:56:03;;;;;;;45.60;25.60;;;;;;;;;;5074943;28;20471;-70
2022/11/12 12:58:31;;;;;;;41.90;24.30;;;;;;;;;;5074802;28;20867;-70
2022/11/12 13:00:59;;;;;;;47.90;27.37;;;;;;;;;;5081826;28;20477;-69
2022/11/12 13:03:47;;;;;;;42.77;24.20;;;;;;;;;;5092992;28;20450;-70
2022/11/12 13:06:15;;;;;;;46.13;25.70;;;;;;;;;;5093451;28;20470;-70
2022/11/12 13:08:44;;;;;;;49.80;27.83;;;;;;;;;;5092667;28;20450;-70
2022/11/12 13:11:11;;;;;;;51.80;26.40;;;;;;;;;;5092970;28;21021;-69
2022/11/12 13:13:39;;;;;;;43.70;24.50;;;;;;;;;;5092391;28;20494;-70
2022/11/12 13:16:08;;;;;;;48.13;26.30;;;;;;;;;;5092604;28;20470;-70
2022/11/12 13:18:53;;;;;;;57.67;29.40;;;;;;;;;;5093166;28;20450;-69
2022/11/12 13:21:21;;;;;;;56.27;29.30;;;;;;;;;;5092413;28;20458;-70
2022/11/12 13:24:06;;;;;;;53.40;27.73;;;;;;;;;;5091756;28;20462;-70
2022/11/12 13:26:47;;;;;;;46.90;25.63;;;;;;;;;;5093374;28;20470;-69
2022/11/12 13:29:44;;;;;;;47.93;25.80;;;;;;;;;;5092202;28;20453;-70
2022/11/12 13:32:32;;;;;;;45.80;28.07;;;;;;;;;;5093055;28;20825;-69
2022/11/12 13:35:19;;;;;;;49.20;27.97;;;;;;;;;;5091661;28;20486;-70
2022/11/12 13:37:47;;;;;;;50.33;26.70;;;;;;;;;;5092813;28;20463;-69
2022/11/12 13:40:17;;;;;;;53.70;30.23;;;;;;;;;;5090685;28;20972;-69
2022/11/12 13:42:48;;;;;;;52.30;30.37;;;;;;;;;;5093906;28;20447;-70
2022/11/12 13:45:15;;;;;;;49.40;28.87;;;;;;;;;;5092934;28;20462;-70
2022/11/12 13:47:43;;;;;;;53.43;29.33;;;;;;;;;;5093537;28;20831;-70
2022/11/12 13:50:13;;;;;;;52.17;29.93;;;;;;;;;;5094149;28;20443;-70
2022/11/12 13:52:41;;;;;;;55.00;30.70;;;;;;;;;;5093975;28;20452;-70
2022/11/12 13:55:13;;;;;;;42.67;23.47;;;;;;;;;;5093514;28;20486;-69
2022/11/12 13:57:42;;;;;;;42.07;23.83;;;;;;;;;;5093956;28;20470;-70
2022/11/12 14:00:11;;;;;;;41.80;25.10;;;;;;;;;;5094190;28;20453;-70
2022/11/12 14:02:39;;;;;;;40.67;24.07;;;;;;;;;;5093822;28;20446;-70
2022/11/12 14:05:13;;;;;;;50.40;23.30;;;;;;;;;;5093273;28;20438;-70
2022/11/12 14:07:45;;;;;;;40.03;22.17;;;;;;;;;;5093618;28;20471;-69
2022/11/12 14:10:18;;;;;;;38.27;20.67;;;;;;;;;;5093716;28;20451;-69
2022/11/12 14:13:09;;;;;;;30.40;19.17;;;;;;;;;;5093739;28;20472;-69
2022/11/12 14:15:43;;;;;;;35.53;19.63;;;;;;;;;;5092989;28;20426;-70
2022/11/12 14:18:13;;;;;;;63.33;23.43;;;;;;;;;;5093573;28;20446;-70
2022/11/12 14:20:40;;;;;;;54.00;23.63;;;;;;;;;;5093502;28;20446;-70
2022/11/12 14:23:11;;;;;;;40.20;21.77;;;;;;;;;;5093570;28;20445;-69
2022/11/12 14:25:47;;;;;;;40.20;20.00;;;;;;;;;;5092635;28;20457;-69
2022/11/12 14:28:32;;;;;;;50.60;25.57;;;;;;;;;;5093294;28;20458;-69
2022/11/12 14:31:01;;;;;;;58.30;32.70;;;;;;;;;;5093189;28;20451;-69
2022/11/12 14:33:29;;;;;;;36.27;21.30;;;;;;;;;;5092969;28;20491;-71
2022/11/12 14:36:00;;;;;;;44.47;22.13;;;;;;;;;;5092977;28;20478;-69
2022/11/12 14:38:29;;;;;;;63.53;25.40;;;;;;;;;;5091625;28;20950;-70
2022/11/12 14:40:58;;;;;;;60.47;23.20;;;;;;;;;;5093278;28;20465;-69
2022/11/12 14:43:27;;;;;;;56.47;19.83;;;;;;;;;;5093133;28;20470;-70
2022/11/12 14:45:55;;;;;;;128.73;29.10;;;;;;;;;;5092840;28;20466;-69
2022/11/12 14:48:24;;;;;;;71.70;27.63;;;;;;;;;;5093093;28;20453;-69
2022/11/12 14:50:52;;;;;;;51.73;26.00;;;;;;;;;;5092832;28;20443;-69
2022/11/12 14:53:22;;;;;;;121.67;31.93;;;;;;;;;;5092846;28;20469;-70